createdAt,value
2022-08-22T00:02:18.943Z,10.57
2022-08-22T00:03:02.938Z,10.05
2022-08-22T00:03:10.729Z,9.38
2022-08-22T00:04:56.520Z,10.70
2022-08-22T00:08:01.098Z,13.10
2022-08-22T00:10:48.283Z,11.32
2022-08-22T00:13:32.122Z,10.10
2022-08-22T00:16:09.136Z,9.40
2022-08-22T00:19:05.063Z,14.00
2022-08-22T00:21:45.006Z,11.55
2022-08-22T00:24:29.314Z,7.22
2022-08-22T00:27:15.004Z,8.02
2022-08-22T00:30:02.836Z,9.13
2022-08-22T00:32:36.636Z,8.85
2022-08-22T00:35:32.701Z,6.50
2022-08-22T00:38:13.531Z,12.63
2022-08-22T00:41:14.937Z,9.50
2022-08-22T00:44:18.803Z,9.07
2022-08-22T00:47:04.284Z,11.25
2022-08-22T00:50:07.038Z,10.80
2022-08-22T00:52:35.655Z,8.77
2022-08-22T00:55:11.889Z,7.75
2022-08-22T00:58:04.247Z,12.15
2022-08-22T01:00:38.202Z,9.95
2022-08-22T01:03:10.979Z,9.98
2022-08-22T01:05:58.895Z,9.00
2022-08-22T01:09:03.797Z,15.00
2022-08-22T01:11:35.901Z,10.45
2022-08-22T01:14:34.682Z,7.43
2022-08-22T01:17:32.221Z,8.05
2022-08-22T01:20:17.765Z,10.27
2022-08-22T01:23:12.835Z,7.53
2022-08-22T01:25:57.959Z,9.18
2022-08-22T01:29:02.145Z,12.27
2022-08-22T01:32:03.854Z,9.48
2022-08-22T01:34:52.408Z,8.98
2022-08-22T01:37:35.242Z,14.75
2022-08-22T01:40:53.810Z,9.73
2022-08-22T01:43:59.226Z,7.57
2022-08-22T01:47:02.544Z,8.90
2022-08-22T01:49:35.545Z,7.85
2022-08-22T01:52:09.867Z,8.82
2022-08-22T01:54:51.111Z,5.85
2022-08-22T01:57:19.524Z,12.73
2022-08-22T01:59:53.022Z,9.48
2022-08-22T02:02:47.648Z,7.13
2022-08-22T02:05:18.707Z,9.60
2022-08-22T02:08:01.873Z,7.95
2022-08-22T02:10:48.021Z,16.13
2022-08-22T02:13:14.916Z,11.35
2022-08-22T02:15:43.898Z,9.75
2022-08-22T02:18:31.448Z,8.80
2022-08-22T02:21:28.732Z,10.68
2022-08-22T02:24:38.163Z,8.60
2022-08-22T02:27:13.469Z,8.93
2022-08-22T02:30:29.528Z,8.48
2022-08-22T02:33:11.167Z,9.90
2022-08-22T02:35:48.520Z,8.23
2022-08-22T02:38:23.439Z,8.00
2022-08-22T02:41:12.127Z,8.38
2022-08-22T02:43:42.041Z,12.45
2022-08-22T02:46:28.319Z,9.35
2022-08-22T02:49:22.086Z,11.98
2022-08-22T02:52:03.287Z,9.35
2022-08-22T02:54:43.036Z,10.98
2022-08-22T02:57:15.272Z,15.70
2022-08-22T03:00:31.352Z,11.80
2022-08-22T03:02:59.907Z,14.48
2022-08-22T03:05:38.603Z,12.00
2022-08-22T03:08:26.004Z,12.70
2022-08-22T03:11:19.739Z,10.32
2022-08-22T03:14:09.476Z,10.80
2022-08-22T03:17:01.068Z,10.30
2022-08-22T03:20:00.618Z,9.25
2022-08-22T03:22:54.043Z,10.57
2022-08-22T03:25:37.611Z,11.98
2022-08-22T03:28:11.927Z,10.60
2022-08-22T03:30:44.196Z,9.27
2022-08-22T03:33:30.081Z,11.52
2022-08-22T03:36:18.302Z,11.98
2022-08-22T03:39:02.384Z,11.18
2022-08-22T03:41:55.317Z,11.93
2022-08-22T03:45:00.240Z,11.65
2022-08-22T03:47:28.572Z,9.77
2022-08-22T03:50:33.411Z,10.38
2022-08-22T03:53:34.612Z,11.93
2022-08-22T03:56:23.344Z,8.85
2022-08-22T03:59:17.798Z,9.15
2022-08-22T04:02:42.169Z,9.57
2022-08-22T04:05:25.968Z,8.25
2022-08-22T04:08:05.436Z,12.13
2022-08-22T04:10:45.095Z,14.20
2022-08-22T04:13:49.224Z,10.88
2022-08-22T04:16:26.516Z,8.80
2022-08-22T04:22:08.632Z,13.95
2022-08-22T04:24:38.482Z,8.77
2022-08-22T04:27:30.364Z,8.07
2022-08-22T04:30:38.765Z,9.57
2022-08-22T04:33:19.539Z,7.07
2022-08-22T04:36:14.199Z,11.10
2022-08-22T04:38:47.909Z,10.10
2022-08-22T04:41:25.166Z,13.15
2022-08-22T04:46:45.714Z,7.25
2022-08-22T04:49:37.639Z,11.77
2022-08-22T04:52:19.918Z,11.77
2022-08-22T04:55:14.566Z,10.98
2022-08-22T04:58:38.594Z,12.60
2022-08-22T05:01:13.724Z,10.75
2022-08-22T05:03:48.096Z,10.05
2022-08-22T05:06:19.309Z,11.02
2022-08-22T05:08:53.674Z,14.38
2022-08-22T05:11:23.435Z,14.63
2022-08-22T05:14:28.516Z,13.40
2022-08-22T05:16:58.219Z,14.45
2022-08-22T05:19:34.789Z,12.65
2022-08-22T05:22:03.366Z,18.77
2022-08-22T05:24:44.298Z,11.13
2022-08-22T05:27:18.408Z,9.48
2022-08-22T05:29:48.810Z,14.07
2022-08-22T05:32:29.885Z,14.68
2022-08-22T05:35:01.367Z,10.82
2022-08-22T05:37:47.603Z,13.77
2022-08-22T05:40:26.497Z,15.13
2022-08-22T05:42:55.739Z,15.25
2022-08-22T05:45:24.110Z,11.25
2022-08-22T05:48:11.293Z,13.77
2022-08-22T05:50:43.361Z,16.60
2022-08-22T05:53:28.742Z,11.73
2022-08-22T05:56:04.003Z,11.93
2022-08-22T05:59:04.099Z,14.48
2022-08-22T06:02:33.892Z,12.93
2022-08-22T06:05:07.595Z,17.23
2022-08-22T06:07:47.664Z,13.80
2022-08-22T06:10:23.708Z,11.45
2022-08-22T06:13:16.075Z,9.70
2022-08-22T06:16:21.604Z,12.05
2022-08-22T06:18:50.854Z,18.13
2022-08-22T06:21:38.533Z,11.93
2022-08-22T06:24:13.588Z,13.93
2022-08-22T06:26:48.928Z,13.75
2022-08-22T06:29:31.880Z,15.75
2022-08-22T06:32:02.566Z,10.40
2022-08-22T06:34:36.190Z,14.13
2022-08-22T06:37:07.973Z,15.55
2022-08-22T06:39:38.403Z,12.52
2022-08-22T06:42:15.999Z,11.70
2022-08-22T06:44:43.741Z,13.70
2022-08-22T06:47:29.909Z,15.48
2022-08-22T06:50:02.797Z,13.93
2022-08-22T06:52:34.477Z,17.02
2022-08-22T06:55:07.258Z,21.80
2022-08-22T06:57:38.775Z,14.02
2022-08-22T07:00:10.901Z,16.23
2022-08-22T07:02:44.450Z,13.85
2022-08-22T07:05:20.833Z,20.58
2022-08-22T07:07:49.545Z,14.30
2022-08-22T07:10:17.687Z,16.92
2022-08-22T07:12:48.440Z,16.20
2022-08-22T07:15:37.488Z,13.82
2022-08-22T07:18:23.494Z,15.85
2022-08-22T07:20:55.331Z,19.30
2022-08-22T07:23:34.688Z,19.02
2022-08-22T07:26:45.468Z,19.65
2022-08-22T07:29:49.837Z,11.40
2022-08-22T07:32:28.481Z,20.80
2022-08-22T07:35:10.859Z,20.45
2022-08-22T07:37:43.784Z,21.33
2022-08-22T07:40:20.510Z,14.73
2022-08-22T07:42:57.031Z,17.70
2022-08-22T07:45:56.976Z,25.63
2022-08-22T07:48:27.275Z,24.25
2022-08-22T07:51:00.630Z,22.23
2022-08-22T07:53:44.313Z,40.75
2022-08-22T07:56:22.388Z,31.92
2022-08-22T07:58:56.073Z,55.25
2022-08-22T08:01:25.580Z,56.42
2022-08-22T08:04:10.865Z,117.07
2022-08-22T08:06:38.307Z,36.20
2022-08-22T08:09:06.831Z,33.03
2022-08-22T08:11:40.645Z,88.70
2022-08-22T08:14:08.881Z,39.30
2022-08-22T08:17:02.763Z,23.77
2022-08-22T08:19:31.658Z,45.25
2022-08-22T08:21:59.528Z,41.25
2022-08-22T08:24:39.987Z,21.58
2022-08-22T08:27:35.827Z,29.20
2022-08-22T08:30:20.424Z,18.63
2022-08-22T08:32:57.568Z,22.13
2022-08-22T08:36:02.364Z,20.13
2022-08-22T08:38:37.434Z,17.90
2022-08-22T08:41:38.964Z,20.40
2022-08-22T08:44:11.789Z,18.33
2022-08-22T08:47:02.072Z,16.55
2022-08-22T08:49:43.672Z,19.73
2022-08-22T08:52:29.496Z,15.40
2022-08-22T08:55:21.936Z,15.48
2022-08-22T08:58:11.100Z,19.50
2022-08-22T09:00:43.013Z,19.88
2022-08-22T09:06:20.167Z,13.55
2022-08-22T09:09:07.487Z,18.45
2022-08-22T09:12:13.144Z,15.88
2022-08-22T09:14:55.884Z,21.60
2022-08-22T09:17:41.643Z,32.80
2022-08-22T09:20:47.761Z,22.00
2022-08-22T09:23:37.071Z,24.05
2022-08-22T09:26:06.889Z,26.20
2022-08-22T09:28:41.860Z,23.52
2022-08-22T09:31:47.472Z,17.17
2022-08-22T09:34:38.168Z,14.45
2022-08-22T09:37:20.689Z,16.27
2022-08-22T09:39:55.461Z,25.67
2022-08-22T09:40:16.631Z,22.58
2022-08-22T09:42:39.974Z,10.38
2022-08-22T09:48:02.221Z,12.50
2022-08-22T09:50:42.997Z,12.90
2022-08-22T09:53:15.771Z,18.85
2022-08-22T09:55:56.148Z,24.73
2022-08-22T09:58:43.888Z,18.95
2022-08-22T10:01:32.815Z,24.85
2022-08-22T10:04:19.282Z,20.70
2022-08-22T10:07:11.774Z,25.55
2022-08-22T10:10:04.133Z,9.77
2022-08-22T10:12:54.835Z,10.43
2022-08-22T10:15:38.357Z,11.10
2022-08-22T10:18:22.494Z,13.95
2022-08-22T10:21:14.093Z,45.33
2022-08-22T10:24:25.214Z,18.60
2022-08-22T10:27:02.368Z,10.43
2022-08-22T10:29:41.427Z,12.82
2022-08-22T10:32:35.007Z,11.75
2022-08-22T10:35:17.152Z,21.65
2022-08-22T10:38:04.986Z,16.33
2022-08-22T10:40:41.601Z,17.75
2022-08-22T10:43:31.751Z,18.45
2022-08-22T10:46:06.750Z,14.57
2022-08-22T10:48:54.352Z,15.02
2022-08-22T10:51:32.825Z,13.80
2022-08-22T10:54:07.991Z,7.53
2022-08-22T10:57:03.717Z,16.30
2022-08-22T11:00:11.705Z,14.15
2022-08-22T11:02:58.530Z,6.03
2022-08-22T11:05:50.282Z,14.70
2022-08-22T11:08:34.579Z,15.27
2022-08-22T11:11:39.669Z,11.35
2022-08-22T11:14:35.341Z,8.40
2022-08-22T11:17:28.029Z,10.55
2022-08-22T11:20:19.857Z,8.50
2022-08-22T11:23:15.004Z,6.53
2022-08-22T11:26:00.141Z,11.32
2022-08-22T11:28:50.935Z,11.30
2022-08-22T11:31:36.454Z,4.80
2022-08-22T11:34:09.354Z,7.68
2022-08-22T11:36:53.168Z,5.68
2022-08-22T11:39:41.022Z,11.68
2022-08-22T11:42:21.905Z,7.35
2022-08-22T11:44:54.519Z,11.77
2022-08-22T11:47:30.740Z,11.10
2022-08-22T11:53:24.162Z,9.23
2022-08-22T11:56:20.603Z,16.17
2022-08-22T11:59:22.819Z,6.28
2022-08-22T12:01:57.028Z,4.57
2022-08-22T12:04:31.648Z,5.63
2022-08-22T12:07:02.097Z,5.32
2022-08-22T12:09:40.153Z,5.95
2022-08-22T12:12:42.139Z,7.93
2022-08-22T12:15:21.565Z,11.48
2022-08-22T12:18:15.330Z,13.25
2022-08-22T12:21:17.762Z,10.35
2022-08-22T12:24:06.461Z,12.85
2022-08-22T12:26:53.256Z,15.05
2022-08-22T12:29:53.126Z,15.27
2022-08-22T12:32:38.871Z,6.30
2022-08-22T12:35:30.436Z,11.93
2022-08-22T12:38:38.347Z,10.67
2022-08-22T12:41:35.102Z,6.43
2022-08-22T12:44:17.915Z,7.33
2022-08-22T12:47:09.777Z,8.90
2022-08-22T12:50:05.195Z,9.02
2022-08-22T12:52:44.289Z,4.20
2022-08-22T12:55:29.507Z,6.70
2022-08-22T12:58:17.798Z,9.40
2022-08-22T13:00:47.650Z,7.95
2022-08-22T13:03:35.494Z,19.15
2022-08-22T13:06:07.825Z,13.60
2022-08-22T13:08:45.451Z,10.57
2022-08-22T13:11:22.716Z,14.38
2022-08-22T13:13:56.511Z,16.42
2022-08-22T13:16:26.336Z,10.88
2022-08-22T13:18:56.886Z,6.45
2022-08-22T13:21:31.552Z,3.92
2022-08-22T13:24:11.918Z,5.43
2022-08-22T13:26:59.088Z,18.23
2022-08-22T13:29:43.830Z,19.30
2022-08-22T13:32:44.237Z,7.13
2022-08-22T13:35:32.613Z,6.28
2022-08-22T13:38:12.259Z,9.88
2022-08-22T13:40:44.239Z,7.82
2022-08-22T13:43:17.976Z,9.60
2022-08-22T13:45:53.891Z,6.40
2022-08-22T13:48:28.353Z,6.88
2022-08-22T13:51:23.849Z,10.70
2022-08-22T13:54:02.090Z,12.25
2022-08-22T13:56:55.479Z,17.73
2022-08-22T13:59:50.173Z,6.00
2022-08-22T14:02:34.358Z,7.90
2022-08-22T14:05:13.591Z,4.72
2022-08-22T14:08:18.370Z,6.97
2022-08-22T14:11:09.739Z,20.77
2022-08-22T14:13:42.850Z,15.20
2022-08-22T14:16:34.112Z,6.28
2022-08-22T14:19:09.964Z,6.15
2022-08-22T14:21:53.307Z,9.82
2022-08-22T14:24:38.750Z,4.80
2022-08-22T14:27:16.092Z,7.30
2022-08-22T14:29:57.318Z,9.75
2022-08-22T14:32:35.350Z,6.90
2022-08-22T14:35:44.660Z,14.02
2022-08-22T14:38:38.329Z,7.43
2022-08-22T14:41:07.070Z,6.72
2022-08-22T14:43:34.162Z,10.48
2022-08-22T14:46:12.725Z,6.10
2022-08-22T14:49:06.701Z,7.18
2022-08-22T14:51:38.132Z,6.28
2022-08-22T14:54:21.523Z,9.40
2022-08-22T14:59:50.137Z,11.10
2022-08-22T15:02:30.520Z,3.75
2022-08-22T15:05:11.567Z,6.75
2022-08-22T15:07:39.441Z,6.20
2022-08-22T15:10:26.942Z,15.65
2022-08-22T15:13:03.152Z,4.47
2022-08-22T15:15:41.158Z,7.80
2022-08-22T15:18:34.029Z,4.78
2022-08-22T15:21:21.030Z,8.95
2022-08-22T15:23:55.155Z,6.53
2022-08-22T15:26:55.325Z,5.40
2022-08-22T15:29:31.255Z,5.30
2022-08-22T15:32:02.461Z,6.77
2022-08-22T15:34:35.748Z,4.07
2022-08-22T15:37:07.859Z,3.60
2022-08-22T15:40:14.019Z,6.00
2022-08-22T15:42:48.433Z,3.92
2022-08-22T15:45:28.624Z,11.27
2022-08-22T15:48:00.067Z,3.47
2022-08-22T15:50:35.345Z,8.18
2022-08-22T15:53:34.684Z,16.42
2022-08-22T15:56:31.763Z,12.30
2022-08-22T15:59:27.850Z,5.95
2022-08-22T16:04:47.382Z,4.63
2022-08-22T16:07:40.377Z,8.55
2022-08-22T16:10:20.006Z,8.57
2022-08-22T16:13:12.758Z,4.60
2022-08-22T16:15:52.857Z,7.18
2022-08-22T16:18:37.752Z,5.30
2022-08-22T16:21:25.648Z,6.53
2022-08-22T16:24:16.966Z,8.43
2022-08-22T16:26:44.701Z,14.70
2022-08-22T16:29:17.891Z,9.35
2022-08-22T16:31:45.056Z,7.50
2022-08-22T16:34:18.349Z,4.13
2022-08-22T16:37:03.733Z,5.57
2022-08-22T16:39:39.162Z,5.03
2022-08-22T16:42:23.925Z,3.92
2022-08-22T16:45:05.423Z,8.07
2022-08-22T16:47:56.542Z,8.65
2022-08-22T16:50:32.747Z,7.22
2022-08-22T16:53:31.498Z,5.78
2022-08-22T16:56:20.088Z,10.75
2022-08-22T16:59:23.027Z,6.68
2022-08-22T17:01:50.245Z,4.82
2022-08-22T17:04:51.990Z,4.43
2022-08-22T17:07:33.709Z,8.52
2022-08-22T17:10:32.537Z,6.32
2022-08-22T17:13:09.677Z,8.18
2022-08-22T17:15:36.694Z,4.22
2022-08-22T17:18:12.079Z,4.40
2022-08-22T17:20:48.699Z,8.80
2022-08-22T17:23:48.654Z,4.38
2022-08-22T17:26:36.234Z,6.93
2022-08-22T17:29:39.480Z,5.43
2022-08-22T17:32:18.066Z,6.82
2022-08-22T17:34:45.137Z,8.32
2022-08-22T17:37:50.129Z,8.85
2022-08-22T17:40:35.414Z,6.95
2022-08-22T17:43:14.381Z,5.90
2022-08-22T17:46:12.803Z,8.18
2022-08-22T17:48:48.253Z,5.63
2022-08-22T17:51:28.777Z,5.25
2022-08-22T17:54:06.017Z,8.35
2022-08-22T17:56:48.130Z,4.85
2022-08-22T17:59:32.473Z,5.20
2022-08-22T18:02:17.746Z,7.68
2022-08-22T18:05:13.139Z,11.50
2022-08-22T18:08:08.755Z,7.38
2022-08-22T18:10:45.816Z,7.38
2022-08-22T18:13:21.018Z,8.80
2022-08-22T18:16:20.820Z,6.22
2022-08-22T18:19:02.335Z,7.95
2022-08-22T18:21:48.528Z,12.18
2022-08-22T18:24:33.347Z,6.75
2022-08-22T18:27:34.153Z,9.10
2022-08-22T18:30:04.352Z,8.10
2022-08-22T18:32:58.561Z,3.95
2022-08-22T18:36:09.348Z,7.05
2022-08-22T18:39:04.926Z,9.65
2022-08-22T18:41:51.045Z,3.72
2022-08-22T18:44:27.007Z,7.78
2022-08-22T18:46:56.861Z,4.72
2022-08-22T18:49:23.836Z,4.57
2022-08-22T18:52:14.013Z,6.70
2022-08-22T18:54:59.794Z,12.45
2022-08-22T18:57:30.631Z,5.15
2022-08-22T19:00:17.071Z,7.57
2022-08-22T19:03:05.379Z,6.13
2022-08-22T19:05:47.878Z,10.93
2022-08-22T19:08:33.571Z,9.02
2022-08-22T19:11:16.476Z,6.18
2022-08-22T19:14:27.454Z,8.75
2022-08-22T19:17:03.749Z,5.22
2022-08-22T19:20:04.220Z,10.27
2022-08-22T19:22:37.053Z,9.93
2022-08-22T19:25:16.581Z,6.22
2022-08-22T19:28:06.687Z,8.27
2022-08-22T19:30:47.437Z,8.00
2022-08-22T19:33:39.941Z,10.38
2022-08-22T19:36:29.001Z,5.72
2022-08-22T19:39:04.485Z,5.30
2022-08-22T19:41:57.167Z,5.78
2022-08-22T19:44:32.887Z,5.20
2022-08-22T19:47:17.818Z,3.38
2022-08-22T19:50:17.069Z,11.75
2022-08-22T19:52:53.818Z,7.53
2022-08-22T19:55:38.822Z,6.53
2022-08-22T19:58:09.383Z,8.50
2022-08-22T20:00:54.652Z,7.30
2022-08-22T20:03:57.151Z,11.65
2022-08-22T20:06:51.869Z,9.45
2022-08-22T20:10:17.321Z,6.57
2022-08-22T20:12:49.751Z,8.93
2022-08-22T20:15:22.149Z,9.32
2022-08-22T20:20:58.482Z,7.53
2022-08-22T20:23:30.823Z,7.65
2022-08-22T20:25:59.124Z,6.90
2022-08-22T20:28:39.315Z,5.65
2022-08-22T20:31:21.197Z,4.85
2022-08-22T20:33:53.195Z,7.82
2022-08-22T20:36:28.778Z,6.95
2022-08-22T20:39:09.380Z,5.27
2022-08-22T20:41:41.319Z,5.13
2022-08-22T20:44:23.030Z,4.90
2022-08-22T20:47:02.758Z,4.95
2022-08-22T20:49:50.580Z,5.22
2022-08-22T20:52:23.641Z,6.65
2022-08-22T20:55:07.897Z,10.05
2022-08-22T20:57:46.333Z,5.95
2022-08-22T21:00:17.129Z,7.93
2022-08-22T21:03:06.533Z,6.80
2022-08-22T21:05:38.193Z,7.85
2022-08-22T21:08:05.265Z,8.35
2022-08-22T21:10:54.258Z,9.68
2022-08-22T21:13:35.510Z,7.18
2022-08-22T21:16:15.942Z,7.50
2022-08-22T21:18:46.143Z,8.80
2022-08-22T21:21:25.470Z,6.72
2022-08-22T21:24:00.851Z,9.82
2022-08-22T21:26:51.895Z,7.35
2022-08-22T21:29:23.443Z,8.27
2022-08-22T21:32:17.141Z,8.57
2022-08-22T21:34:47.952Z,6.97
2022-08-22T21:37:29.396Z,7.05
2022-08-22T21:40:19.458Z,8.18
2022-08-22T21:42:58.821Z,10.93
2022-08-22T21:45:27.888Z,7.35
2022-08-22T21:47:54.975Z,7.88
2022-08-22T21:50:24.695Z,11.93
2022-08-22T21:53:02.170Z,5.65
2022-08-22T21:55:34.503Z,6.88
2022-08-22T21:58:35.878Z,9.85
2022-08-22T22:01:30.587Z,8.73
2022-08-22T22:03:59.719Z,8.75
2022-08-22T22:06:30.429Z,6.43
2022-08-22T22:08:57.455Z,7.85
2022-08-22T22:11:24.794Z,4.20
2022-08-22T22:13:52.186Z,14.25
2022-08-22T22:16:25.754Z,8.57
2022-08-22T22:18:52.802Z,7.57
2022-08-22T22:21:20.137Z,9.00
2022-08-22T22:23:47.209Z,5.35
2022-08-22T22:26:14.461Z,6.38
2022-08-22T22:28:47.694Z,5.25
2022-08-22T22:31:16.581Z,10.63
2022-08-22T22:33:44.115Z,7.03
2022-08-22T22:36:19.372Z,8.63
2022-08-22T22:38:46.945Z,7.97
2022-08-22T22:41:14.198Z,11.32
2022-08-22T22:43:42.423Z,7.85
2022-08-22T22:46:09.546Z,11.95
2022-08-22T22:48:36.614Z,11.45
2022-08-22T22:51:09.336Z,14.85
2022-08-22T22:53:40.184Z,9.02
2022-08-22T22:56:15.944Z,9.95
2022-08-22T22:58:43.732Z,10.60
2022-08-22T23:01:20.485Z,12.30
2022-08-22T23:03:48.740Z,12.63
2022-08-22T23:06:19.396Z,10.45
2022-08-22T23:08:47.543Z,7.57
2022-08-22T23:11:24.709Z,8.30
2022-08-22T23:16:22.319Z,10.87
2022-08-22T23:18:50.641Z,8.75
2022-08-22T23:21:25.449Z,6.57
2022-08-22T23:23:56.452Z,7.50
2022-08-22T23:26:23.675Z,9.57
2022-08-22T23:28:51.344Z,8.68
2022-08-22T23:31:32.395Z,7.93
2022-08-22T23:34:13.897Z,10.60
2022-08-22T23:36:46.443Z,10.18
2022-08-22T23:39:18.126Z,9.13
2022-08-22T23:41:46.554Z,11.38
2022-08-22T23:44:15.935Z,9.90
2022-08-22T23:46:43.761Z,8.98
2022-08-22T23:49:11.002Z,12.07
2022-08-22T23:51:38.173Z,10.65
2022-08-22T23:54:06.113Z,9.93
2022-08-22T23:56:36.626Z,9.27
2022-08-22T23:59:07.198Z,16.50
